Time;durP1;ratioP1;P1;durP2;ratioP2;P2;SDS_P1;SDS_P2;PMS_P1;PMS_P2;Temp;Humidity;BMP_temperature;BMP_pressure;BME280_temperature;BME280_humidity;BME280_pressure;Samples;Min_cycle;Max_cycle;Signal;HPM_P1;HPM_P2
2022/02/19 00:00:11;;;;;;;;;;;;;;;;;;5081487;28;20041;-70
2022/02/19 00:02:36;;;;;;;;;;;;;;;;;;5076338;28;20042;-71
2022/02/19 00:05:02;;;;;;;;;;;;;;;;;;5086707;28;20007;-71
2022/02/19 00:07:28;;;;;;;;;;;;;;;;;;5077025;28;19916;-71
2022/02/19 00:09:53;;;;;;;;;;;;;;;;;;5085673;28;19955;-71
2022/02/19 00:12:18;;;;;;;;;;;;;;;;;;5088630;28;20019;-72
2022/02/19 00:14:45;;;;;;;;;;;;;;;;;;5086158;28;20037;-72
2022/02/19 00:17:10;;;;;;;;;;;;;;;;;;5076486;28;19946;-72
2022/02/19 00:19:35;;;;;;;;;;;;;;;;;;5081293;28;19920;-71
2022/02/19 00:22:01;;;;;;;;;;;;;;;;;;5088758;28;19920;-71
2022/02/19 00:24:26;;;;;;;;;;;;;;;;;;5089152;28;20099;-71
2022/02/19 00:26:51;;;;;;;;;;;;;;;;;;5077014;28;19924;-69
2022/02/19 00:29:17;;;;;;;;;;;;;;;;;;5077500;28;19931;-70
2022/02/19 00:31:42;;;;;;;;;;;;;;;;;;5088899;28;19920;-71
2022/02/19 00:34:08;;;;;;;;;;;;;;;;;;5086735;28;20384;-71
2022/02/19 00:36:34;;;;;;;;;;;;;;;;;;5076964;28;20057;-71
2022/02/19 00:38:59;;;;;;;;;;;;;;;;;;5088451;28;19924;-71
2022/02/19 00:41:25;;;;;;;;;;;;;;;;;;5080666;28;20372;-71
2022/02/19 00:43:51;;;;;;;;;;;;;;;;;;5088745;28;19916;-71
2022/02/19 00:46:17;;;;;;;;;;;;;;;;;;5080821;28;19917;-70
2022/02/19 00:48:42;;;;;;;;;;;;;;;;;;5089159;28;19920;-70
2022/02/19 00:51:07;;;;;;;;;;;;;;;;;;5078462;28;20372;-72
2022/02/19 00:53:33;;;;;;;;;;;;;;;;;;5080639;28;20398;-71
2022/02/19 00:55:58;;;;;;;;;;;;;;;;;;5080423;28;20010;-71
2022/02/19 00:58:23;;;;;;;;;;;;;;;;;;5089052;28;19942;-69
2022/02/19 01:00:49;;;;;;;;;;;;;;;;;;5088300;28;19949;-70
2022/02/19 01:03:14;;;;;;;;;;;;;;;;;;5088676;28;19920;-71
2022/02/19 01:05:40;;;;;;;;;;;;;;;;;;5088333;28;20288;-70
2022/02/19 01:08:05;;;;;;;;;;;;;;;;;;5080586;28;19923;-71
2022/02/19 01:10:31;;;;;;;;;;;;;;;;;;5080261;28;19959;-70
2022/02/19 01:12:56;;;;;;;;;;;;;;;;;;5088488;28;19922;-71
2022/02/19 01:15:23;;;;;;;;;;;;;;;;;;5080549;28;19992;-70
2022/02/19 01:17:48;;;;;;;;;;;;;;;;;;5080237;28;19945;-71
2022/02/19 01:20:13;;;;;;;;;;;;;;;;;;5073506;28;19921;-70
2022/02/19 01:22:39;;;;;;;;;;;;;;;;;;5089100;28;19924;-71
2022/02/19 01:25:05;;;;;;;;;;;;;;;;;;5092334;28;19972;-72
2022/02/19 01:27:31;;;;;;;;;;;;;;;;;;5084059;28;20397;-72
2022/02/19 01:29:58;;;;;;;;;;;;;;;;;;5091959;28;19916;-71
2022/02/19 01:32:23;;;;;;;;;;;;;;;;;;5084115;28;19916;-71
2022/02/19 01:34:48;;;;;;;;;;;;;;;;;;5091796;28;19922;-70
2022/02/19 01:37:14;;;;;;;;;;;;;;;;;;5091883;28;19920;-72
2022/02/19 01:39:39;;;;;;;;;;;;;;;;;;5108160;28;20466;-72
2022/02/19 01:42:05;;;;;;;;;;;;;;;;;;5077772;28;19924;-71
2022/02/19 01:44:35;;;;;;;;;;;;;;;;;;5077608;28;19920;-70
2022/02/19 01:47:01;;;;;;;;;;;;;;;;;;5084053;28;20395;-73
2022/02/19 01:49:26;;;;;;;;;;;;;;;;;;5092124;28;19923;-70
2022/02/19 01:51:52;;;;;;;;;;;;;;;;;;5091745;28;19920;-73
2022/02/19 01:54:17;;;;;;;;;;;;;;;;;;5091793;28;20402;-70
2022/02/19 01:56:43;;;;;;;;;;;;;;;;;;5083074;28;20410;-69
2022/02/19 01:59:08;;;;;;;;;;;;;;;;;;5077875;28;19966;-70
2022/02/19 02:01:33;;;;;;;;;;;;;;;;;;5082392;28;19920;-70
2022/02/19 02:03:59;;;;;;;;;;;;;;;;;;5091444;28;20023;-69
2022/02/19 02:06:25;;;;;;;;;;;;;;;;;;5091219;28;19920;-70
2022/02/19 02:08:50;;;;;;;;;;;;;;;;;;5089822;28;19916;-69
2022/02/19 02:11:16;;;;;;;;;;;;;;;;;;5091404;28;19916;-70
2022/02/19 02:13:42;;;;;;;;;;;;;;;;;;5079379;28;19917;-70
2022/02/19 02:16:07;;;;;;;;;;;;;;;;;;5069852;28;20388;-70
2022/02/19 02:18:32;;;;;;;;;;;;;;;;;;5069992;28;20375;-70
2022/02/19 02:20:58;;;;;;;;;;;;;;;;;;5077036;28;20352;-70
2022/02/19 02:23:24;;;;;;;;;;;;;;;;;;5090108;28;19927;-71
2022/02/19 02:25:51;;;;;;;;;;;;;;;;;;5123894;27;20304;-71
2022/02/19 02:28:19;;;;;;;;;;;;;;;;;;5089953;28;19959;-71
2022/02/19 02:30:44;;;;;;;;;;;;;;;;;;5091047;28;19961;-70
2022/02/19 02:33:11;;;;;;;;;;;;;;;;;;5089946;28;20257;-69
2022/02/19 02:35:37;;;;;;;;;;;;;;;;;;5086857;28;19938;-76
2022/02/19 02:38:03;;;;;;;;;;;;;;;;;;5070146;28;20318;-75
2022/02/19 02:40:29;;;;;;;;;;;;;;;;;;5071741;28;20019;-76
2022/02/19 02:42:54;;;;;;;;;;;;;;;;;;5071012;28;19968;-75
2022/02/19 02:45:20;;;;;;;;;;;;;;;;;;5069858;28;19946;-76
2022/02/19 02:47:45;;;;;;;;;;;;;;;;;;5071372;28;19935;-76
2022/02/19 02:50:11;;;;;;;;;;;;;;;;;;5069742;28;19919;-77
2022/02/19 02:52:37;;;;;;;;;;;;;;;;;;5071218;28;19962;-76
2022/02/19 02:55:03;;;;;;;;;;;;;;;;;;5074180;28;19978;-74
2022/02/19 02:57:29;;;;;;;;;;;;;;;;;;5070301;28;19938;-76
2022/02/19 02:59:54;;;;;;;;;;;;;;;;;;5074088;28;19980;-77
2022/02/19 03:02:20;;;;;;;;;;;;;;;;;;5075729;28;19976;-76
2022/02/19 03:04:45;;;;;;;;;;;;;;;;;;5072619;28;19919;-75
2022/02/19 03:07:10;;;;;;;;;;;;;;;;;;5084897;28;20418;-76
2022/02/19 03:09:36;;;;;;;;;;;;;;;;;;5094010;28;19913;-74
2022/02/19 03:12:01;;;;;;;;;;;;;;;;;;5070915;28;19912;-75
2022/02/19 03:14:26;;;;;;;;;;;;;;;;;;5071086;28;19966;-76
2022/02/19 03:16:52;;;;;;;;;;;;;;;;;;5069301;28;19956;-77
2022/02/19 03:19:17;;;;;;;;;;;;;;;;;;5071341;28;19912;-76
2022/02/19 03:21:42;;;;;;;;;;;;;;;;;;5068997;28;20436;-77
2022/02/19 03:24:08;;;;;;;;;;;;;;;;;;5070633;28;19912;-76
2022/02/19 03:26:33;;;;;;;;;;;;;;;;;;5071025;28;20033;-76
2022/02/19 03:28:58;;;;;;;;;;;;;;;;;;5069160;28;19920;-76
2022/02/19 03:31:24;;;;;;;;;;;;;;;;;;5070988;28;19964;-74
2022/02/19 03:33:50;;;;;;;;;;;;;;;;;;5069079;28;19913;-78
2022/02/19 03:36:15;;;;;;;;;;;;;;;;;;5068777;28;20261;-76
2022/02/19 03:38:41;;;;;;;;;;;;;;;;;;5070009;28;19931;-77
2022/02/19 03:41:06;;;;;;;;;;;;;;;;;;5068589;28;19917;-77
2022/02/19 03:43:32;;;;;;;;;;;;;;;;;;5086157;28;20368;-76
2022/02/19 03:45:57;;;;;;;;;;;;;;;;;;5069739;28;19912;-77
2022/02/19 03:48:22;;;;;;;;;;;;;;;;;;5068756;28;19920;-76
2022/02/19 03:50:48;;;;;;;;;;;;;;;;;;5068479;28;20349;-75
2022/02/19 03:53:13;;;;;;;;;;;;;;;;;;5068585;28;19924;-76
2022/02/19 03:55:39;;;;;;;;;;;;;;;;;;5069116;28;19928;-76
2022/02/19 03:58:05;;;;;;;;;;;;;;;;;;5068505;28;19924;-77
2022/02/19 04:00:30;;;;;;;;;;;;;;;;;;5068844;28;19913;-76
2022/02/19 04:02:56;;;;;;;;;;;;;;;;;;5068326;28;19916;-76
2022/02/19 04:05:21;;;;;;;;;;;;;;;;;;5069759;28;19912;-76
2022/02/19 04:07:47;;;;;;;;;;;;;;;;;;5082772;28;20378;-77
2022/02/19 04:10:13;;;;;;;;;;;;;;;;;;5090034;28;19995;-76
2022/02/19 04:12:38;;;;;;;;;;;;;;;;;;5088279;28;20007;-77
2022/02/19 04:15:04;;;;;;;;;;;;;;;;;;5086920;28;19916;-76
2022/02/19 04:17:30;;;;;;;;;;;;;;;;;;5090650;28;19912;-77
2022/02/19 04:19:55;;;;;;;;;;;;;;;;;;5089788;28;20125;-74
2022/02/19 04:22:21;;;;;;;;;;;;;;;;;;5080601;28;19943;-77
2022/02/19 04:24:47;;;;;;;;;;;;;;;;;;5089348;28;20431;-76
2022/02/19 04:27:15;;;;;;;;;;;;;;;;;;5081315;28;19952;-76
2022/02/19 04:29:41;;;;;;;;;;;;;;;;;;5075522;28;19942;-76
2022/02/19 04:32:07;;;;;;;;;;;;;;;;;;5090251;28;19920;-75
2022/02/19 04:34:32;;;;;;;;;;;;;;;;;;5091002;28;19920;-75
2022/02/19 04:36:57;;;;;;;;;;;;;;;;;;5088552;28;20049;-76
2022/02/19 04:39:23;;;;;;;;;;;;;;;;;;5089605;28;19920;-76
2022/02/19 04:41:48;;;;;;;;;;;;;;;;;;5089049;28;20153;-77
2022/02/19 04:44:14;;;;;;;;;;;;;;;;;;5081194;28;20449;-78
2022/02/19 04:46:39;;;;;;;;;;;;;;;;;;5081206;28;19916;-76
2022/02/19 04:49:05;;;;;;;;;;;;;;;;;;5081597;28;20340;-76
2022/02/19 04:51:30;;;;;;;;;;;;;;;;;;5089477;28;19920;-78
2022/02/19 04:53:56;;;;;;;;;;;;;;;;;;5079743;28;19943;-77
2022/02/19 04:56:21;;;;;;;;;;;;;;;;;;5081431;28;19917;-77
2022/02/19 04:58:47;;;;;;;;;;;;;;;;;;5091718;28;19965;-78
2022/02/19 05:01:12;;;;;;;;;;;;;;;;;;5093206;28;19928;-76
2022/02/19 05:03:38;;;;;;;;;;;;;;;;;;5084641;28;19923;-75
2022/02/19 05:06:03;;;;;;;;;;;;;;;;;;5084794;28;19929;-76
2022/02/19 05:08:29;;;;;;;;;;;;;;;;;;5090304;28;19961;-76
2022/02/19 05:10:54;;;;;;;;;;;;;;;;;;5092478;28;19920;-77
2022/02/19 05:13:20;;;;;;;;;;;;;;;;;;5084230;28;19924;-77
2022/02/19 05:15:46;;;;;;;;;;;;;;;;;;5092732;28;20340;-79
2022/02/19 05:18:12;;;;;;;;;;;;;;;;;;5084641;28;19920;-76
2022/02/19 05:20:38;;;;;;;;;;;;;;;;;;5078193;28;20018;-76
2022/02/19 05:23:04;;;;;;;;;;;;;;;;;;5103471;28;20019;-77
2022/02/19 05:25:29;;;;;;;;;;;;;;;;;;5093293;28;19916;-75
2022/02/19 05:27:54;;;;;;;;;;;;;;;;;;5092684;28;20375;-76
2022/02/19 05:30:20;;;;;;;;;;;;;;;;;;5084638;28;19961;-78
2022/02/19 05:32:45;;;;;;;;;;;;;;;;;;5071087;28;19916;-76
2022/02/19 05:35:11;;;;;;;;;;;;;;;;;;5084765;28;19916;-75
2022/02/19 05:37:36;;;;;;;;;;;;;;;;;;5084255;28;19916;-76
2022/02/19 05:40:03;;;;;;;;;;;;;;;;;;5077577;28;20598;-77
2022/02/19 05:42:28;;;;;;;;;;;;;;;;;;5083745;28;19931;-74
2022/02/19 05:44:54;;;;;;;;;;;;;;;;;;5092131;28;19920;-77
2022/02/19 05:47:19;;;;;;;;;;;;;;;;;;5092393;28;20043;-76
2022/02/19 05:49:48;;;;;;;;;;;;;;;;;;5091037;28;19920;-75
2022/02/19 05:52:14;;;;;;;;;;;;;;;;;;5092263;28;19916;-75
2022/02/19 05:54:40;;;;;;;;;;;;;;;;;;5082719;28;19931;-76
2022/02/19 05:57:05;;;;;;;;;;;;;;;;;;5077390;28;19932;-76
2022/02/19 05:59:30;;;;;;;;;;;;;;;;;;5083397;28;19923;-77
2022/02/19 06:01:56;;;;;;;;;;;;;;;;;;5090342;28;19924;-76
2022/02/19 06:04:21;;;;;;;;;;;;;;;;;;5083318;28;19931;-77
2022/02/19 06:06:47;;;;;;;;;;;;;;;;;;5092124;28;20291;-76
2022/02/19 06:09:12;;;;;;;;;;;;;;;;;;5091448;28;20361;-77
2022/02/19 06:11:40;;;;;;;;;;;;;;;;;;5092118;28;19922;-76
2022/02/19 06:14:05;;;;;;;;;;;;;;;;;;5091308;28;20372;-76
2022/02/19 06:16:31;;;;;;;;;;;;;;;;;;5092730;28;20026;-77
2022/02/19 06:18:56;;;;;;;;;;;;;;;;;;5092904;28;20400;-76
2022/02/19 06:21:21;;;;;;;;;;;;;;;;;;5079179;28;19989;-76
2022/02/19 06:23:46;;;;;;;;;;;;;;;;;;5088893;28;19926;-76
2022/02/19 06:26:12;;;;;;;;;;;;;;;;;;5093104;28;19940;-77
2022/02/19 06:28:37;;;;;;;;;;;;;;;;;;5081630;28;19917;-76
2022/02/19 06:31:02;;;;;;;;;;;;;;;;;;5088565;28;19946;-78
2022/02/19 06:33:28;;;;;;;;;;;;;;;;;;5082948;28;19938;-77
2022/02/19 06:35:56;;;;;;;;;;;;;;;;;;5083180;28;19916;-79
2022/02/19 06:38:22;;;;;;;;;;;;;;;;;;5089662;28;20388;-77
2022/02/19 06:40:48;;;;;;;;;;;;;;;;;;5092951;28;19942;-77
2022/02/19 06:43:13;;;;;;;;;;;;;;;;;;5091526;28;20010;-75
2022/02/19 06:45:38;;;;;;;;;;;;;;;;;;5073001;28;20291;-77
2022/02/19 06:48:04;;;;;;;;;;;;;;;;;;5088370;28;19916;-77
2022/02/19 06:50:29;;;;;;;;;;;;;;;;;;5091648;28;19920;-75
2022/02/19 06:52:55;;;;;;;;;;;;;;;;;;5085000;28;19985;-76
2022/02/19 06:55:20;;;;;;;;;;;;;;;;;;5095837;28;19969;-76
2022/02/19 06:57:48;;;;;;;;;;;;;;;;;;5086233;28;19931;-76
2022/02/19 07:00:14;;;;;;;;;;;;;;;;;;5083652;28;19928;-77
2022/02/19 07:02:39;;;;;;;;;;;;;;;;;;5083157;28;20011;-77
2022/02/19 07:05:05;;;;;;;;;;;;;;;;;;5091137;28;20002;-78
2022/02/19 07:07:30;;;;;;;;;;;;;;;;;;5099849;28;20411;-77
2022/02/19 07:09:56;;;;;;;;;;;;;;;;;;5091236;28;19923;-76
2022/02/19 07:12:21;;;;;;;;;;;;;;;;;;5089844;28;20356;-75
2022/02/19 07:14:47;;;;;;;;;;;;;;;;;;5090804;28;19923;-77
2022/02/19 07:17:13;;;;;;;;;;;;;;;;;;5091190;28;19920;-78
2022/02/19 07:19:38;;;;;;;;;;;;;;;;;;5082927;28;19920;-77
2022/02/19 07:22:04;;;;;;;;;;;;;;;;;;5074895;28;19944;-76
2022/02/19 07:24:29;;;;;;;;;;;;;;;;;;5082311;28;19951;-76
2022/02/19 07:26:56;;;;;;;;;;;;;;;;;;5090423;28;19920;-76
2022/02/19 07:29:22;;;;;;;;;;;;;;;;;;5090558;28;20437;-77
2022/02/19 07:31:47;;;;;;;;;;;;;;;;;;5090689;28;19954;-77
2022/02/19 07:34:13;;;;;;;;;;;;;;;;;;5090771;28;19928;-76
2022/02/19 07:36:38;;;;;;;;;;;;;;;;;;5090628;28;19916;-77
2022/02/19 07:39:04;;;;;;;;;;;;;;;;;;5090083;28;19924;-76
2022/02/19 07:41:30;;;;;;;;;;;;;;;;;;5090276;28;19920;-76
2022/02/19 07:43:55;;;;;;;;;;;;;;;;;;5090684;28;19986;-76
2022/02/19 07:46:21;;;;;;;;;;;;;;;;;;5099141;28;20394;-75
2022/02/19 07:48:46;;;;;;;;;;;;;;;;;;5090217;28;19923;-74
2022/02/19 07:59:24;;;;;;;;;;;;;;;;;;5076888;28;19946;-77
2022/02/19 08:01:49;;;;;;;;;;;;;;;;;;5090289;28;19945;-76
2022/02/19 08:04:14;;;;;;;;;;;;;;;;;;5082409;28;19923;-76
2022/02/19 08:06:40;;;;;;;;;;;;;;;;;;5082004;28;19957;-76
2022/02/19 08:09:07;;;;;;;;;;;;;;;;;;5089721;28;19916;-76
2022/02/19 08:11:32;;;;;;;;;;;;;;;;;;5082088;28;20573;-76
2022/02/19 08:13:58;;;;;;;;;;;;;;;;;;5090359;28;19927;-78
2022/02/19 08:16:23;;;;;;;;;;;;;;;;;;5082019;28;19920;-77
2022/02/19 08:18:50;;;;;;;;;;;;;;;;;;5075828;28;19930;-77
2022/02/19 08:21:18;;;;;;;;;;;;;;;;;;5077374;28;19917;-76
2022/02/19 08:23:43;;;;;;;;;;;;;;;;;;5081741;28;20287;-74
2022/02/19 08:26:08;;;;;;;;;;;;;;;;;;5076393;28;19931;-76
2022/02/19 08:28:34;;;;;;;;;;;;;;;;;;5081858;28;19926;-76
2022/02/19 08:30:59;;;;;;;;;;;;;;;;;;5090062;28;19916;-77
2022/02/19 08:33:25;;;;;;;;;;;;;;;;;;5092897;28;19916;-76
2022/02/19 08:35:50;;;;;;;;;;;;;;;;;;5080123;28;19916;-75
2022/02/19 08:38:16;;;;;;;;;;;;;;;;;;5096020;28;19927;-78
2022/02/19 08:40:41;;;;;;;;;;;;;;;;;;5089959;28;19928;-73
2022/02/19 08:43:07;;;;;;;;;;;;;;;;;;5103277;28;19938;-76
2022/02/19 08:45:33;;;;;;;;;;;;;;;;;;5097206;28;19935;-76
2022/02/19 08:48:04;;;;;;;;;;;;;;;;;;5085831;28;20019;-77
2022/02/19 08:50:30;;;;;;;;;;;;;;;;;;5080188;28;20011;-75
2022/02/19 08:52:56;;;;;;;;;;;;;;;;;;5083398;28;19916;-76
2022/02/19 08:55:21;;;;;;;;;;;;;;;;;;5098594;28;19916;-76
2022/02/19 08:57:47;;;;;;;;;;;;;;;;;;5083450;28;20300;-77
2022/02/19 09:00:14;;;;;;;;;;;;;;;;;;5077081;28;20384;-77
2022/02/19 09:02:40;;;;;;;;;;;;;;;;;;5080554;28;19924;-75
2022/02/19 09:05:07;;;;;;;;;;;;;;;;;;5083317;28;20401;-75
2022/02/19 09:07:36;;;;;;;;;;;;;;;;;;5080422;28;19963;-75
2022/02/19 09:10:04;;;;;;;;;;;;;;;;;;5091733;28;19928;-76
2022/02/19 09:12:30;;;;;;;;;;;;;;;;;;5086332;28;19924;-78
2022/02/19 09:14:55;;;;;;;;;;;;;;;;;;5084037;28;19920;-78
2022/02/19 09:17:20;;;;;;;;;;;;;;;;;;5093731;28;19995;-77
2022/02/19 09:19:46;;;;;;;;;;;;;;;;;;5084377;28;19916;-78
2022/02/19 09:22:11;;;;;;;;;;;;;;;;;;5093187;28;19971;-77
2022/02/19 09:24:37;;;;;;;;;;;;;;;;;;5092602;28;19924;-77
2022/02/19 09:27:03;;;;;;;;;;;;;;;;;;5080151;28;20500;-75
2022/02/19 09:29:28;;;;;;;;;;;;;;;;;;5083066;28;19927;-77
2022/02/19 09:31:53;;;;;;;;;;;;;;;;;;5093312;28;19920;-75
2022/02/19 09:34:22;;;;;;;;;;;;;;;;;;5093460;28;20257;-76
2022/02/19 09:36:48;;;;;;;;;;;;;;;;;;5092841;28;20045;-75
2022/02/19 09:39:13;;;;;;;;;;;;;;;;;;5063427;28;19929;-75
2022/02/19 09:41:41;;;;;;;;;;;;;;;;;;5091098;28;19928;-76
2022/02/19 09:44:07;;;;;;;;;;;;;;;;;;5084506;28;20360;-77
2022/02/19 09:46:32;;;;;;;;;;;;;;;;;;5085227;28;20075;-76
2022/02/19 09:48:58;;;;;;;;;;;;;;;;;;5084634;28;19920;-78
2022/02/19 09:51:24;;;;;;;;;;;;;;;;;;5084699;28;19998;-76
2022/02/19 09:53:49;;;;;;;;;;;;;;;;;;5092951;28;19923;-77
2022/02/19 09:56:15;;;;;;;;;;;;;;;;;;5084087;28;20575;-76
2022/02/19 09:58:43;;;;;;;;;;;;;;;;;;5085264;28;20404;-76
2022/02/19 10:01:18;;;;;;;;;;;;;;;;;;5090455;28;20014;-76
2022/02/19 10:03:44;;;;;;;;;;;;;;;;;;5092427;28;19920;-78
2022/02/19 10:06:10;;;;;;;;;;;;;;;;;;5092612;28;19920;-78
2022/02/19 10:08:35;;;;;;;;;;;;;;;;;;5084385;28;20026;-76
2022/02/19 10:11:03;;;;;;;;;;;;;;;;;;5092159;28;19920;-77
2022/02/19 10:13:40;;;;;;;;;;;;;;;;;;5092377;28;19916;-77
2022/02/19 10:16:06;;;;;;;;;;;;;;;;;;5078088;28;19943;-77
2022/02/19 10:18:33;;;;;;;;;;;;;;;;;;5091553;28;20375;-77
2022/02/19 10:21:15;;;;;;;;;;;;;;;;;;5092243;28;19916;-76
2022/02/19 10:23:42;;;;;;;;;;;;;;;;;;5084230;28;19929;-76
2022/02/19 10:26:08;;;;;;;;;;;;;;;;;;5084095;28;19916;-76
2022/02/19 10:28:34;;;;;;;;;;;;;;;;;;5092548;28;19924;-79
2022/02/19 10:31:16;;;;;;;;;;;;;;;;;;5092805;28;20420;-79
2022/02/19 10:33:42;;;;;;;;;;;;;;;;;;5080989;28;19920;-75
2022/02/19 10:36:17;;;;;;;;;;;;;;;;;;5089483;28;20390;-77
2022/02/19 10:38:59;;;;;;;;;;;;;;;;;;5092097;28;19924;-78
2022/02/19 10:41:33;;;;;;;;;;;;;;;;;;5084914;28;19922;-77
2022/02/19 10:43:59;;;;;;;;;;;;;;;;;;5091871;28;19923;-78
2022/02/19 10:46:26;;;;;;;;;;;;;;;;;;5092039;28;19916;-78
2022/02/19 10:48:52;;;;;;;;;;;;;;;;;;5091784;28;20026;-77
2022/02/19 10:51:18;;;;;;;;;;;;;;;;;;5092698;28;20390;-76
2022/02/19 10:53:55;;;;;;;;;;;;;;;;;;5092923;28;19962;-76
2022/02/19 10:56:21;;;;;;;;;;;;;;;;;;5092121;28;19959;-80
2022/02/19 10:59:07;;;;;;;;;;;;;;;;;;5092036;28;19947;-78
2022/02/19 11:01:41;;;;;;;;;;;;;;;;;;5082267;28;19924;-78
2022/02/19 11:04:09;;;;;;;;;;;;;;;;;;5091577;28;19926;-78
2022/02/19 11:06:38;;;;;;;;;;;;;;;;;;5091531;28;19916;-77
2022/02/19 11:09:07;;;;;;;;;;;;;;;;;;5091814;28;20273;-78
2022/02/19 11:11:33;;;;;;;;;;;;;;;;;;5079350;28;19916;-76
2022/02/19 11:14:00;;;;;;;;;;;;;;;;;;5088533;28;19949;-76
2022/02/19 11:16:27;;;;;;;;;;;;;;;;;;5090139;28;19928;-76
2022/02/19 11:18:54;;;;;;;;;;;;;;;;;;5091119;28;19958;-80
2022/02/19 11:21:20;;;;;;;;;;;;;;;;;;5072869;28;19916;-77
2022/02/19 11:23:45;;;;;;;;;;;;;;;;;;5090059;28;19912;-77
2022/02/19 11:26:11;;;;;;;;;;;;;;;;;;5085590;28;19912;-76
2022/02/19 11:28:37;;;;;;;;;;;;;;;;;;5069105;28;19920;-77
2022/02/19 11:31:04;;;;;;;;;;;;;;;;;;5071159;28;19916;-76
2022/02/19 11:33:31;;;;;;;;;;;;;;;;;;5070527;28;19923;-75
2022/02/19 11:36:00;;;;;;;;;;;;;;;;;;5069376;28;20083;-77
2022/02/19 11:38:32;;;;;;;;;;;;;;;;;;5070817;28;19954;-77
2022/02/19 11:41:02;;;;;;;;;;;;;;;;;;5071679;28;19951;-76
2022/02/19 11:43:39;;;;;;;;;;;;;;;;;;5089566;28;19973;-76
2022/02/19 11:46:14;;;;;;;;;;;;;;;;;;5090088;28;21280;-76
2022/02/19 11:48:44;;;;;;;;;;;;;;;;;;5090980;28;19912;-78
2022/02/19 11:51:16;;;;;;;;;;;;;;;;;;5089560;28;20040;-76
2022/02/19 11:53:43;;;;;;;;;;;;;;;;;;5088716;28;19916;-78
2022/02/19 11:56:10;;;;;;;;;;;;;;;;;;5089963;28;20395;-78
2022/02/19 11:58:57;;;;;;;;;;;;;;;;;;5090402;28;20437;-75
2022/02/19 12:01:22;;;;;;;;;;;;;;;;;;5090805;28;19973;-77
2022/02/19 12:03:48;;;;;;;;;;;;;;;;;;5089284;28;19916;-77
2022/02/19 12:06:18;;;;;;;;;;;;;;;;;;5091011;28;19920;-77
2022/02/19 12:08:47;;;;;;;;;;;;;;;;;;5089129;28;19946;-78
2022/02/19 12:11:13;;;;;;;;;;;;;;;;;;5089077;28;19912;-79
2022/02/19 12:13:44;;;;;;;;;;;;;;;;;;5072672;28;19969;-75
2022/02/19 12:16:28;;;;;;;;;;;;;;;;;;5091274;28;19915;-76
2022/02/19 12:18:56;;;;;;;;;;;;;;;;;;5089802;28;19920;-76
2022/02/19 12:21:48;;;;;;;;;;;;;;;;;;5081643;28;19963;-76
2022/02/19 12:24:22;;;;;;;;;;;;;;;;;;5074981;28;19923;-77
2022/02/19 12:27:08;;;;;;;;;;;;;;;;;;5083153;28;19924;-76
2022/02/19 12:29:39;;;;;;;;;;;;;;;;;;5090281;28;20635;-76
2022/02/19 12:32:07;;;;;;;;;;;;;;;;;;5084881;28;19952;-76
2022/02/19 12:34:37;;;;;;;;;;;;;;;;;;5075066;28;19916;-78
2022/02/19 12:37:05;;;;;;;;;;;;;;;;;;5081375;28;19947;-76
2022/02/19 12:39:33;;;;;;;;;;;;;;;;;;5074684;28;19928;-77
2022/02/19 12:41:58;;;;;;;;;;;;;;;;;;5089280;28;20322;-76
2022/02/19 12:44:24;;;;;;;;;;;;;;;;;;5090228;28;19916;-76
2022/02/19 12:46:52;;;;;;;;;;;;;;;;;;5090272;28;20355;-76
2022/02/19 12:49:21;;;;;;;;;;;;;;;;;;5089999;28;19927;-75
2022/02/19 12:51:54;;;;;;;;;;;;;;;;;;5081348;28;19920;-76
2022/02/19 12:54:32;;;;;;;;;;;;;;;;;;5081347;28;19963;-76
2022/02/19 12:57:00;;;;;;;;;;;;;;;;;;5089367;28;20391;-78
2022/02/19 12:59:29;;;;;;;;;;;;;;;;;;5088862;28;19920;-77
2022/02/19 13:01:55;;;;;;;;;;;;;;;;;;5089249;28;19924;-75
2022/02/19 13:04:47;;;;;;;;;;;;;;;;;;5089948;28;19916;-76
2022/02/19 13:07:19;;;;;;;;;;;;;;;;;;5082445;28;19920;-79
2022/02/19 13:09:49;;;;;;;;;;;;;;;;;;5084349;28;19920;-79
2022/02/19 13:12:15;;;;;;;;;;;;;;;;;;5083255;28;19966;-78
2022/02/19 13:14:48;;;;;;;;;;;;;;;;;;5084074;28;20401;-77
2022/02/19 13:17:14;;;;;;;;;;;;;;;;;;5085945;28;19920;-78
2022/02/19 13:19:39;;;;;;;;;;;;;;;;;;5092402;28;19926;-79
2022/02/19 13:22:06;;;;;;;;;;;;;;;;;;5092827;28;20368;-76
2022/02/19 13:24:34;;;;;;;;;;;;;;;;;;5083010;28;19916;-78
2022/02/19 13:27:10;;;;;;;;;;;;;;;;;;5080698;28;19928;-77
2022/02/19 13:29:36;;;;;;;;;;;;;;;;;;5085262;28;19923;-78
2022/02/19 13:32:04;;;;;;;;;;;;;;;;;;5080383;28;19920;-78
2022/02/19 13:34:31;;;;;;;;;;;;;;;;;;5091005;28;19916;-77
2022/02/19 13:36:56;;;;;;;;;;;;;;;;;;5092667;28;20417;-77
2022/02/19 13:39:21;;;;;;;;;;;;;;;;;;5092881;28;19924;-77
2022/02/19 13:41:53;;;;;;;;;;;;;;;;;;5091303;28;19928;-76
2022/02/19 13:44:19;;;;;;;;;;;;;;;;;;5093324;28;19962;-79
2022/02/19 13:46:44;;;;;;;;;;;;;;;;;;5079318;28;19917;-78
2022/02/19 13:49:11;;;;;;;;;;;;;;;;;;5081373;28;19924;-78
2022/02/19 13:51:38;;;;;;;;;;;;;;;;;;5098423;28;20411;-77
2022/02/19 13:54:13;;;;;;;;;;;;;;;;;;5090239;28;19919;-77
2022/02/19 13:56:39;;;;;;;;;;;;;;;;;;5091446;28;20371;-78
2022/02/19 13:59:05;;;;;;;;;;;;;;;;;;5091607;28;20011;-79
2022/02/19 14:01:40;;;;;;;;;;;;;;;;;;5084838;28;20014;-75
2022/02/19 14:04:07;;;;;;;;;;;;;;;;;;5080254;28;19920;-76
2022/02/19 14:06:51;;;;;;;;;;;;;;;;;;5105595;28;19969;-79
2022/02/19 14:09:18;;;;;;;;;;;;;;;;;;5090030;28;19916;-79
2022/02/19 14:11:57;;;;;;;;;;;;;;;;;;5086224;28;19972;-73
2022/02/19 14:14:22;;;;;;;;;;;;;;;;;;5085094;28;20070;-76
2022/02/19 14:16:57;;;;;;;;;;;;;;;;;;5071672;28;20007;-76
2022/02/19 14:19:23;;;;;;;;;;;;;;;;;;5073377;28;20001;-78
2022/02/19 14:21:59;;;;;;;;;;;;;;;;;;5072711;28;20030;-78
2022/02/19 14:24:24;;;;;;;;;;;;;;;;;;5072068;28;19917;-76
2022/02/19 14:27:05;;;;;;;;;;;;;;;;;;5072068;28;20410;-77
2022/02/19 14:29:31;;;;;;;;;;;;;;;;;;5087121;28;19918;-79
2022/02/19 14:31:58;;;;;;;;;;;;;;;;;;5090073;28;19916;-79
2022/02/19 14:34:23;;;;;;;;;;;;;;;;;;5091959;28;19927;-76
2022/02/19 14:36:49;;;;;;;;;;;;;;;;;;5092281;28;19912;-77
2022/02/19 14:39:14;;;;;;;;;;;;;;;;;;5090285;28;19926;-77
2022/02/19 14:41:40;;;;;;;;;;;;;;;;;;5090667;28;19916;-76
2022/02/19 14:44:05;;;;;;;;;;;;;;;;;;5089599;28;19912;-76
2022/02/19 14:46:31;;;;;;;;;;;;;;;;;;5091024;28;19966;-79
2022/02/19 14:48:56;;;;;;;;;;;;;;;;;;5091536;28;19912;-77
2022/02/19 14:51:23;;;;;;;;;;;;;;;;;;5091800;28;19984;-79
2022/02/19 14:53:48;;;;;;;;;;;;;;;;;;5090316;28;20376;-78
2022/02/19 14:56:14;;;;;;;;;;;;;;;;;;5091291;28;19962;-76
2022/02/19 14:58:39;;;;;;;;;;;;;;;;;;5091331;28;19912;-76
2022/02/19 15:01:05;;;;;;;;;;;;;;;;;;5091376;28;19981;-77
2022/02/19 15:03:31;;;;;;;;;;;;;;;;;;5090052;28;20181;-76
2022/02/19 15:05:57;;;;;;;;;;;;;;;;;;5089799;28;19958;-78
2022/02/19 15:08:23;;;;;;;;;;;;;;;;;;5072680;28;19950;-76
2022/02/19 15:10:49;;;;;;;;;;;;;;;;;;5090132;28;19995;-78
2022/02/19 15:13:15;;;;;;;;;;;;;;;;;;5123516;27;19916;-78
2022/02/19 15:15:40;;;;;;;;;;;;;;;;;;5091260;28;20307;-79
2022/02/19 15:18:06;;;;;;;;;;;;;;;;;;5090761;28;19978;-77
2022/02/19 15:20:31;;;;;;;;;;;;;;;;;;5091333;28;19938;-78
2022/02/19 15:22:58;;;;;;;;;;;;;;;;;;5091156;28;19992;-79
2022/02/19 15:25:24;;;;;;;;;;;;;;;;;;5091305;28;20302;-76
2022/02/19 15:27:49;;;;;;;;;;;;;;;;;;5089404;28;19912;-79
2022/02/19 15:30:15;;;;;;;;;;;;;;;;;;5081728;28;19919;-77
2022/02/19 15:32:40;;;;;;;;;;;;;;;;;;5086538;28;20548;-77
2022/02/19 15:35:08;;;;;;;;;;;;;;;;;;5082501;28;19927;-77
2022/02/19 15:37:34;;;;;;;;;;;;;;;;;;5093704;28;20007;-78
2022/02/19 15:40:00;;;;;;;;;;;;;;;;;;5084649;28;19967;-79
2022/02/19 15:42:26;;;;;;;;;;;;;;;;;;5082624;28;20417;-78
2022/02/19 15:44:53;;;;;;;;;;;;;;;;;;5089619;28;19916;-79
2022/02/19 15:47:19;;;;;;;;;;;;;;;;;;5075936;28;19924;-78
2022/02/19 15:49:44;;;;;;;;;;;;;;;;;;5088739;28;19920;-77
2022/02/19 15:52:09;;;;;;;;;;;;;;;;;;5090579;28;19973;-78
2022/02/19 15:54:35;;;;;;;;;;;;;;;;;;5081986;28;19919;-76
2022/02/19 15:57:01;;;;;;;;;;;;;;;;;;5090426;28;19981;-76
2022/02/19 15:59:26;;;;;;;;;;;;;;;;;;5090056;28;19920;-75
2022/02/19 16:01:52;;;;;;;;;;;;;;;;;;5090642;28;19927;-76
2022/02/19 16:04:17;;;;;;;;;;;;;;;;;;5082011;28;19946;-76
2022/02/19 16:06:43;;;;;;;;;;;;;;;;;;5089962;28;19939;-78
2022/02/19 16:09:08;;;;;;;;;;;;;;;;;;5090004;28;19963;-74
2022/02/19 16:11:34;;;;;;;;;;;;;;;;;;5105905;28;20012;-77
2022/02/19 16:14:00;;;;;;;;;;;;;;;;;;5089462;28;20007;-76
2022/02/19 16:16:26;;;;;;;;;;;;;;;;;;5089970;28;20033;-78
2022/02/19 16:18:51;;;;;;;;;;;;;;;;;;5088620;28;19923;-77
2022/02/19 16:21:17;;;;;;;;;;;;;;;;;;5089277;28;20428;-78
2022/02/19 16:23:42;;;;;;;;;;;;;;;;;;5091906;28;19947;-77
2022/02/19 16:26:08;;;;;;;;;;;;;;;;;;5087985;28;19958;-76
2022/02/19 16:28:33;;;;;;;;;;;;;;;;;;5089047;28;19916;-76
2022/02/19 16:30:59;;;;;;;;;;;;;;;;;;5085468;28;20288;-78
2022/02/19 16:33:24;;;;;;;;;;;;;;;;;;5089707;28;19996;-77
2022/02/19 16:35:50;;;;;;;;;;;;;;;;;;5091673;28;19998;-75
2022/02/19 16:38:15;;;;;;;;;;;;;;;;;;5092535;28;19915;-77
2022/02/19 16:40:42;;;;;;;;;;;;;;;;;;5093343;28;19912;-77
2022/02/19 16:43:07;;;;;;;;;;;;;;;;;;5091412;28;19988;-78
2022/02/19 16:45:38;;;;;;;;;;;;;;;;;;5091351;28;19918;-77
2022/02/19 16:48:06;;;;;;;;;;;;;;;;;;5091990;28;19912;-77
2022/02/19 16:50:31;;;;;;;;;;;;;;;;;;5090497;28;19916;-78